createdAt,value
2018-04-19T00:00:53.320Z,19.32
2018-04-19T00:03:21.754Z,19.26
2018-04-19T00:05:50.827Z,19.21
2018-04-19T00:08:19.257Z,19.21
2018-04-19T00:10:47.650Z,19.20
2018-04-19T00:13:16.039Z,19.22
2018-04-19T00:15:44.436Z,19.17
2018-04-19T00:18:12.792Z,19.10
2018-04-19T00:20:41.140Z,19.08
2018-04-19T00:23:09.686Z,19.06
2018-04-19T00:25:38.049Z,18.97
2018-04-19T00:28:06.501Z,18.96
2018-04-19T00:30:35.045Z,18.98
2018-04-19T00:33:04.142Z,18.90
2018-04-19T00:35:33.355Z,18.91
2018-04-19T00:38:01.691Z,18.88
2018-04-19T00:40:30.007Z,18.87
2018-04-19T00:42:58.337Z,18.64
2018-04-19T00:45:26.895Z,18.80
2018-04-19T00:47:55.374Z,18.82
2018-04-19T00:50:23.764Z,18.76
2018-04-19T00:53:09.872Z,18.73
2018-04-19T00:55:38.392Z,18.66
2018-04-19T00:58:07.998Z,18.60
2018-04-19T01:00:37.341Z,18.61
2018-04-19T01:03:05.637Z,18.60
2018-04-19T01:05:33.927Z,18.60
2018-04-19T01:08:02.550Z,18.59
2018-04-19T01:10:30.882Z,18.53
2018-04-19T01:13:00.571Z,18.43
2018-04-19T01:15:29.176Z,18.39
2018-04-19T01:17:57.916Z,18.38
2018-04-19T01:20:26.202Z,18.36
2018-04-19T01:22:54.482Z,18.37
2018-04-19T01:25:22.805Z,18.35
2018-04-19T01:27:51.131Z,18.35
2018-04-19T01:30:19.447Z,18.37
2018-04-19T01:32:47.792Z,18.38
2018-04-19T01:35:16.158Z,18.33
2018-04-19T01:37:44.632Z,18.31
2018-04-19T01:40:12.982Z,18.24
2018-04-19T01:42:42.332Z,18.26
2018-04-19T01:45:10.617Z,18.26
2018-04-19T01:47:38.952Z,18.26
2018-04-19T01:50:08.142Z,18.24
2018-04-19T01:52:37.207Z,18.19
2018-04-19T01:55:05.601Z,18.18
2018-04-19T01:57:33.913Z,18.15
2018-04-19T02:00:02.252Z,18.16
2018-04-19T02:02:31.335Z,18.16
2018-04-19T02:04:59.681Z,18.16
2018-04-19T02:07:28.032Z,18.11
2018-04-19T02:09:56.481Z,18.10
2018-04-19T02:12:25.044Z,18.01
2018-04-19T02:14:54.652Z,17.99
2018-04-19T02:17:23.156Z,17.99
2018-04-19T02:19:51.497Z,17.94
2018-04-19T02:22:19.818Z,17.92
2018-04-19T02:24:48.327Z,17.95
2018-04-19T02:27:16.612Z,17.94
2018-04-19T02:29:44.936Z,17.86
2018-04-19T02:32:13.223Z,17.83
2018-04-19T02:34:41.546Z,17.83
2018-04-19T02:37:09.867Z,17.78
2018-04-19T02:39:39.714Z,17.77
2018-04-19T02:42:08.046Z,17.72
2018-04-19T02:44:36.356Z,17.69
2018-04-19T02:47:05.509Z,17.63
2018-04-19T02:49:33.800Z,17.61
2018-04-19T02:52:03.646Z,17.60
2018-04-19T02:54:32.136Z,17.59
2018-04-19T02:57:00.522Z,17.62
2018-04-19T02:59:28.886Z,17.61
2018-04-19T03:01:57.365Z,17.59
2018-04-19T03:04:26.447Z,17.43
2018-04-19T03:06:54.850Z,17.39
2018-04-19T03:09:23.416Z,17.39
2018-04-19T03:11:52.500Z,17.38
2018-04-19T03:14:20.923Z,17.37
2018-04-19T03:16:49.267Z,17.40
2018-04-19T03:19:19.447Z,17.44
2018-04-19T03:21:47.792Z,17.36
2018-04-19T03:24:16.115Z,17.30
2018-04-19T03:26:44.507Z,17.09
2018-04-19T03:29:12.816Z,17.06
2018-04-19T03:31:41.170Z,17.05
2018-04-19T03:34:09.513Z,17.10
2018-04-19T03:36:38.002Z,17.09
2018-04-19T03:39:06.290Z,17.07
2018-04-19T03:41:34.705Z,17.09
2018-04-19T03:44:03.793Z,17.09
2018-04-19T03:46:32.936Z,17.07
2018-04-19T03:49:02.797Z,17.09
2018-04-19T03:51:32.994Z,17.11
2018-04-19T03:54:01.307Z,17.12
2018-04-19T03:56:29.760Z,17.09
2018-04-19T03:58:58.298Z,17.04
2018-04-19T04:01:26.608Z,17.06
2018-04-19T04:03:54.893Z,17.03
2018-04-19T04:06:23.208Z,17.06
2018-04-19T04:08:51.582Z,16.92
2018-04-19T04:11:19.947Z,16.79
2018-04-19T04:13:48.998Z,16.71
2018-04-19T04:19:45.599Z,16.76
2018-04-19T04:22:32.944Z,16.80
2018-04-19T04:25:01.392Z,16.86
2018-04-19T04:27:29.678Z,16.83
2018-04-19T04:29:58.925Z,16.77
2018-04-19T04:32:27.425Z,16.79
2018-04-19T04:34:55.699Z,16.77
2018-04-19T04:37:24.058Z,16.77
2018-04-19T04:39:52.518Z,16.78
2018-04-19T04:42:22.774Z,16.74
2018-04-19T04:44:51.303Z,16.79
2018-04-19T04:47:20.576Z,16.73
2018-04-19T04:49:49.701Z,16.74
2018-04-19T04:52:18.317Z,16.78
2018-04-19T04:54:46.646Z,16.77
2018-04-19T04:57:15.757Z,16.78
2018-04-19T04:59:45.004Z,16.78
2018-04-19T05:02:13.300Z,16.73
2018-04-19T05:04:41.822Z,16.76
2018-04-19T05:07:11.023Z,16.80
2018-04-19T05:09:39.409Z,16.87
2018-04-19T05:12:07.731Z,16.90
2018-04-19T05:14:36.202Z,16.93
2018-04-19T05:17:05.335Z,16.96
2018-04-19T05:19:34.618Z,16.99
2018-04-19T05:22:03.414Z,17.05
2018-04-19T05:24:32.507Z,17.11
2018-04-19T05:27:01.609Z,17.19
2018-04-19T05:29:30.698Z,17.24
2018-04-19T05:31:59.927Z,17.25
2018-04-19T05:34:28.397Z,17.25
2018-04-19T05:36:56.768Z,17.34
2018-04-19T05:39:25.857Z,17.39
2018-04-19T05:41:54.959Z,17.41
2018-04-19T05:44:24.832Z,17.47
2018-04-19T05:46:53.224Z,17.48
2018-04-19T05:49:21.491Z,17.59
2018-04-19T05:51:50.089Z,17.62
2018-04-19T05:54:18.418Z,17.73
2018-04-19T05:56:46.752Z,17.80
2018-04-19T05:59:15.299Z,17.91
2018-04-19T06:01:43.679Z,17.97
2018-04-19T06:04:12.139Z,18.10
2018-04-19T06:06:40.433Z,18.16
2018-04-19T06:09:08.972Z,18.22
2018-04-19T06:11:38.169Z,18.29
2018-04-19T06:14:07.292Z,18.35
2018-04-19T06:16:35.613Z,18.42
2018-04-19T06:19:04.141Z,18.54
2018-04-19T06:21:33.866Z,18.59
2018-04-19T06:24:02.603Z,18.64
2018-04-19T06:26:31.951Z,18.72
2018-04-19T06:29:00.247Z,18.83
2018-04-19T06:31:28.582Z,18.96
2018-04-19T06:33:57.862Z,19.08
2018-04-19T06:36:27.033Z,19.14
2018-04-19T06:38:55.579Z,19.17
2018-04-19T06:41:24.193Z,19.21
2018-04-19T06:43:52.550Z,19.31
2018-04-19T06:46:20.962Z,19.45
2018-04-19T06:48:49.337Z,19.57
2018-04-19T06:51:17.797Z,19.66
2018-04-19T06:53:46.847Z,19.79
2018-04-19T06:56:15.926Z,19.84
2018-04-19T06:58:45.506Z,19.94
2018-04-19T07:01:13.793Z,20.00
2018-04-19T07:03:42.307Z,20.12
2018-04-19T07:06:11.534Z,20.14
2018-04-19T07:08:39.842Z,20.22
2018-04-19T07:11:08.253Z,20.31
2018-04-19T07:13:37.324Z,20.38
2018-04-19T07:16:05.647Z,20.49
2018-04-19T07:18:34.048Z,20.59
2018-04-19T07:21:02.453Z,20.72
2018-04-19T07:23:30.833Z,20.84
2018-04-19T07:25:59.306Z,21.00
2018-04-19T07:28:27.628Z,21.14
2018-04-19T07:30:56.744Z,21.25
2018-04-19T07:33:25.146Z,21.39
2018-04-19T07:35:53.498Z,21.46
2018-04-19T07:38:21.817Z,21.57
2018-04-19T07:40:50.142Z,21.73
2018-04-19T07:43:18.463Z,21.82
2018-04-19T07:45:46.771Z,21.99
2018-04-19T07:48:15.147Z,22.09
2018-04-19T07:50:43.498Z,22.20
2018-04-19T07:53:11.807Z,22.27
2018-04-19T07:55:40.927Z,22.40
2018-04-19T07:58:10.469Z,22.50
2018-04-19T08:00:38.893Z,22.59
2018-04-19T08:03:07.275Z,22.70
2018-04-19T08:05:36.377Z,22.80
2018-04-19T08:08:05.523Z,22.96
2018-04-19T08:10:33.915Z,23.02
2018-04-19T08:13:02.241Z,23.06
2018-04-19T08:15:30.607Z,23.21
2018-04-19T08:17:59.002Z,23.32
2018-04-19T08:20:27.333Z,23.46
2018-04-19T08:22:55.639Z,23.59
2018-04-19T08:25:24.793Z,23.73
2018-04-19T08:27:53.199Z,23.86
2018-04-19T08:30:21.607Z,23.91
2018-04-19T08:32:49.949Z,23.99
2018-04-19T08:35:19.098Z,24.10
2018-04-19T08:37:47.498Z,24.20
2018-04-19T08:40:15.783Z,24.26
2018-04-19T08:42:44.150Z,24.33
2018-04-19T08:45:12.612Z,24.36
2018-04-19T08:47:41.059Z,24.44
2018-04-19T08:50:10.291Z,24.53
2018-04-19T08:52:38.704Z,24.61
2018-04-19T08:55:07.013Z,24.76
2018-04-19T08:57:37.253Z,24.85
2018-04-19T09:00:05.733Z,24.95
2018-04-19T09:02:34.099Z,24.99
2018-04-19T09:05:02.458Z,25.07
2018-04-19T09:07:31.534Z,25.13
2018-04-19T09:09:59.824Z,25.14
2018-04-19T09:12:28.164Z,25.20
2018-04-19T09:14:56.578Z,25.25
2018-04-19T09:17:25.269Z,25.32
2018-04-19T09:19:53.645Z,25.36
2018-04-19T09:22:22.338Z,25.38
2018-04-19T09:24:50.798Z,25.50
2018-04-19T09:27:19.240Z,25.54
2018-04-19T09:29:47.523Z,25.63
2018-04-19T09:32:15.830Z,25.68
2018-04-19T09:34:44.217Z,25.69
2018-04-19T09:37:12.659Z,25.78
2018-04-19T09:39:41.135Z,25.92
2018-04-19T09:42:09.700Z,26.00
2018-04-19T09:44:38.929Z,25.96
2018-04-19T09:47:07.231Z,26.02
2018-04-19T09:49:35.554Z,26.11
2018-04-19T09:52:04.158Z,26.19
2018-04-19T09:54:32.712Z,26.23
2018-04-19T09:57:01.907Z,26.35
2018-04-19T09:59:32.138Z,26.42
2018-04-19T10:02:04.498Z,26.55
2018-04-19T10:04:34.746Z,26.67
2018-04-19T10:07:03.056Z,26.70
2018-04-19T10:09:31.562Z,26.75
2018-04-19T10:12:00.092Z,26.80
2018-04-19T10:14:28.567Z,26.93
2018-04-19T10:16:56.929Z,27.05
2018-04-19T10:19:26.090Z,27.07
2018-04-19T10:21:54.400Z,27.16
2018-04-19T10:24:23.518Z,27.25
2018-04-19T10:26:51.790Z,27.31
2018-04-19T10:29:20.103Z,27.41
2018-04-19T10:31:48.423Z,27.47
2018-04-19T10:34:17.664Z,27.54
2018-04-19T10:36:47.197Z,27.61
2018-04-19T10:39:15.764Z,27.64
2018-04-19T10:41:44.093Z,27.69
2018-04-19T10:44:13.293Z,27.82
2018-04-19T10:46:41.607Z,27.89
2018-04-19T10:49:10.053Z,27.98
2018-04-19T10:51:39.125Z,28.03
2018-04-19T10:54:07.531Z,28.11
2018-04-19T10:56:36.654Z,28.26
2018-04-19T10:59:05.000Z,28.34
2018-04-19T11:01:33.385Z,28.44
2018-04-19T11:04:01.716Z,28.48
2018-04-19T11:06:30.004Z,28.48
2018-04-19T11:08:59.787Z,28.55
2018-04-19T11:11:28.149Z,28.62
2018-04-19T11:13:56.593Z,28.70
2018-04-19T11:16:24.918Z,28.82
2018-04-19T11:18:53.514Z,28.90
2018-04-19T11:21:21.815Z,28.98
2018-04-19T11:23:51.014Z,29.11
2018-04-19T11:26:20.114Z,29.15
2018-04-19T11:28:48.499Z,29.14
2018-04-19T11:31:17.603Z,29.24
2018-04-19T11:33:45.938Z,29.39
2018-04-19T11:36:14.277Z,29.48
2018-04-19T11:38:42.648Z,29.58
2018-04-19T11:41:12.687Z,29.68
2018-04-19T11:43:41.011Z,29.79
2018-04-19T11:46:10.167Z,29.82
2018-04-19T11:48:38.623Z,29.79
2018-04-19T11:51:06.992Z,29.89
2018-04-19T11:53:35.442Z,29.94
2018-04-19T11:56:04.547Z,30.00
2018-04-19T11:58:33.879Z,30.18
2018-04-19T12:01:02.313Z,30.27
2018-04-19T12:03:32.125Z,30.33
2018-04-19T12:06:01.286Z,30.43
2018-04-19T12:08:29.568Z,30.50
2018-04-19T12:10:57.930Z,30.58
2018-04-19T12:13:26.592Z,30.66
2018-04-19T12:15:56.254Z,30.74
2018-04-19T12:18:24.716Z,30.84
2018-04-19T12:20:53.534Z,30.97
2018-04-19T12:23:22.670Z,31.04
2018-04-19T12:25:50.995Z,31.04
2018-04-19T12:28:19.325Z,30.96
2018-04-19T12:30:47.698Z,31.04
2018-04-19T12:33:16.072Z,31.17
2018-04-19T12:35:44.766Z,31.30
2018-04-19T12:38:13.107Z,31.34
2018-04-19T12:40:41.444Z,31.37
2018-04-19T12:43:09.780Z,31.42
2018-04-19T12:45:38.911Z,31.48
2018-04-19T12:48:07.207Z,31.58
2018-04-19T12:50:35.555Z,31.67
2018-04-19T12:53:04.045Z,31.69
2018-04-19T12:55:32.419Z,31.84
2018-04-19T12:58:01.799Z,32.04
2018-04-19T13:00:31.046Z,32.16
2018-04-19T13:02:59.447Z,32.26
2018-04-19T13:05:27.821Z,32.34
2018-04-19T13:07:56.224Z,32.39
2018-04-19T13:10:25.415Z,32.46
2018-04-19T13:12:53.867Z,32.41
2018-04-19T13:15:22.589Z,32.52
2018-04-19T13:17:51.684Z,32.61
2018-04-19T13:20:21.878Z,32.60
2018-04-19T13:22:50.245Z,32.70
2018-04-19T13:25:18.571Z,32.84
2018-04-19T13:27:47.850Z,33.02
2018-04-19T13:30:16.249Z,33.07
2018-04-19T13:32:44.770Z,33.07
2018-04-19T13:35:13.375Z,33.05
2018-04-19T13:37:41.789Z,33.03
2018-04-19T13:40:11.123Z,33.07
2018-04-19T13:42:39.492Z,33.21
2018-04-19T13:45:07.931Z,33.36
2018-04-19T13:47:36.574Z,33.46
2018-04-19T13:50:04.922Z,33.52
2018-04-19T13:52:35.240Z,33.52
2018-04-19T13:55:04.656Z,33.56
2018-04-19T13:57:33.077Z,33.62
2018-04-19T14:00:01.603Z,33.67
2018-04-19T14:02:30.844Z,33.72
2018-04-19T14:04:59.473Z,33.75
2018-04-19T14:07:27.798Z,33.74
2018-04-19T14:09:56.246Z,33.84
2018-04-19T14:12:25.460Z,33.84
2018-04-19T14:14:53.990Z,33.83
2018-04-19T14:17:22.410Z,33.92
2018-04-19T14:19:50.890Z,33.95
2018-04-19T14:22:19.345Z,34.08
2018-04-19T14:24:47.754Z,34.01
2018-04-19T14:27:16.262Z,33.91
2018-04-19T14:29:44.840Z,33.99
2018-04-19T14:32:14.028Z,34.13
2018-04-19T14:34:42.423Z,34.20
2018-04-19T14:37:10.901Z,34.24
2018-04-19T14:39:39.307Z,34.21
2018-04-19T14:42:07.863Z,34.16
2018-04-19T14:44:36.191Z,34.06
2018-04-19T14:47:04.765Z,34.05
2018-04-19T14:49:33.075Z,34.08
2018-04-19T14:52:01.632Z,34.13
2018-04-19T14:54:30.040Z,33.97
2018-04-19T14:56:58.364Z,33.94
2018-04-19T14:59:26.736Z,33.83
2018-04-19T15:01:55.076Z,33.76
2018-04-19T15:04:23.736Z,33.70
2018-04-19T15:06:52.999Z,33.77
2018-04-19T15:09:21.391Z,33.94
2018-04-19T15:11:50.634Z,34.10
2018-04-19T15:14:19.003Z,34.26
2018-04-19T15:16:48.284Z,34.40
2018-04-19T15:19:16.697Z,34.85
2018-04-19T15:21:45.035Z,35.24
2018-04-19T15:24:13.457Z,35.10
2018-04-19T15:26:42.048Z,35.83
2018-04-19T15:29:10.345Z,36.61
2018-04-19T15:31:38.744Z,37.50
2018-04-19T15:34:07.177Z,38.01
2018-04-19T15:36:35.483Z,38.88
2018-04-19T15:39:04.167Z,38.82
2018-04-19T15:41:32.518Z,38.89
2018-04-19T15:44:00.881Z,39.13
2018-04-19T15:46:29.372Z,39.19
2018-04-19T15:48:57.813Z,39.59
2018-04-19T15:51:26.343Z,40.07
2018-04-19T15:53:54.934Z,40.58
2018-04-19T15:56:23.344Z,40.81
2018-04-19T15:58:51.804Z,41.07
2018-04-19T16:01:20.266Z,40.69
2018-04-19T16:03:48.632Z,40.26
2018-04-19T16:06:17.011Z,39.70
2018-04-19T16:08:45.355Z,39.68
2018-04-19T16:11:14.508Z,39.72
2018-04-19T16:13:42.947Z,40.34
2018-04-19T16:16:11.590Z,41.29
2018-04-19T16:18:40.973Z,41.40
2018-04-19T16:21:09.372Z,41.80
2018-04-19T16:23:37.759Z,42.15
2018-04-19T16:26:07.305Z,42.06
2018-04-19T16:28:35.800Z,42.20
2018-04-19T16:31:04.289Z,42.37
2018-04-19T16:33:32.629Z,42.62
2018-04-19T16:36:01.719Z,42.58
2018-04-19T16:38:30.064Z,42.83
2018-04-19T16:40:58.583Z,42.80
2018-04-19T16:43:26.966Z,42.04
2018-04-19T16:45:55.525Z,41.94
2018-04-19T16:48:23.939Z,41.97
2018-04-19T16:50:52.375Z,41.64
2018-04-19T16:53:20.908Z,41.54
2018-04-19T16:55:49.411Z,41.52
2018-04-19T16:58:19.238Z,40.88
2018-04-19T17:00:47.583Z,40.76
2018-04-19T17:03:16.080Z,40.07
2018-04-19T17:05:45.397Z,39.46
2018-04-19T17:08:14.659Z,39.62
2018-04-19T17:10:43.206Z,40.08
2018-04-19T17:13:11.703Z,40.12
2018-04-19T17:15:40.198Z,40.16
2018-04-19T17:18:08.612Z,40.40
2018-04-19T17:20:37.005Z,40.55
2018-04-19T17:23:06.102Z,40.60
2018-04-19T17:25:35.203Z,39.80
2018-04-19T17:28:03.709Z,39.17
2018-04-19T17:30:32.149Z,38.61
2018-04-19T17:33:01.314Z,37.63
2018-04-19T17:35:29.831Z,36.50
2018-04-19T17:37:59.443Z,35.45
2018-04-19T17:40:27.910Z,34.41
2018-04-19T17:42:56.292Z,33.33
2018-04-19T17:45:24.787Z,32.52
2018-04-19T17:47:53.283Z,31.87
2018-04-19T17:50:21.822Z,31.30
2018-04-19T17:52:50.926Z,30.75
2018-04-19T17:55:19.467Z,30.28
2018-04-19T17:57:48.039Z,29.95
2018-04-19T18:00:17.507Z,29.69
2018-04-19T18:02:46.324Z,29.47
2018-04-19T18:05:15.060Z,29.17
2018-04-19T18:07:44.508Z,28.98
2018-04-19T18:10:13.096Z,28.78
2018-04-19T18:12:41.965Z,28.70
2018-04-19T18:15:10.380Z,28.52
2018-04-19T18:17:39.009Z,28.44
2018-04-19T18:20:07.446Z,28.35
2018-04-19T18:22:36.785Z,28.36
2018-04-19T18:25:05.140Z,28.28
2018-04-19T18:27:34.332Z,28.20
2018-04-19T18:30:03.626Z,28.13
2018-04-19T18:32:32.740Z,27.98
2018-04-19T18:35:02.028Z,27.87
2018-04-19T18:37:32.553Z,27.75
2018-04-19T18:40:03.110Z,27.73
2018-04-19T18:42:31.468Z,27.66
2018-04-19T18:44:59.904Z,27.55
2018-04-19T18:47:28.461Z,27.42
2018-04-19T18:49:56.949Z,27.35
2018-04-19T18:52:25.575Z,27.34
2018-04-19T18:54:53.973Z,27.33
2018-04-19T18:57:22.587Z,27.27
2018-04-19T18:59:51.162Z,27.09
2018-04-19T19:02:19.533Z,27.03
2018-04-19T19:04:48.001Z,26.95
2018-04-19T19:07:16.408Z,26.95
2018-04-19T19:09:44.898Z,26.91
2018-04-19T19:12:13.338Z,26.86
2018-04-19T19:14:41.817Z,26.67
2018-04-19T19:17:27.815Z,26.59
2018-04-19T19:20:10.220Z,26.53
2018-04-19T19:22:38.565Z,26.46
2018-04-19T19:25:07.222Z,26.33
2018-04-19T19:27:35.869Z,26.18
2018-04-19T19:30:04.292Z,26.16
2018-04-19T19:32:32.828Z,26.17
2018-04-19T19:35:01.322Z,26.16
2018-04-19T19:37:30.663Z,26.13
2018-04-19T19:39:59.243Z,26.10
2018-04-19T19:42:27.690Z,26.03
2018-04-19T19:44:56.034Z,25.91
2018-04-19T19:47:25.200Z,25.61
2018-04-19T19:49:53.605Z,25.33
2018-04-19T19:52:22.065Z,25.09
2018-04-19T19:54:50.493Z,25.04
2018-04-19T19:57:19.048Z,24.98
2018-04-19T19:59:48.207Z,24.93
2018-04-19T20:02:16.736Z,24.94
2018-04-19T20:04:45.881Z,24.86
2018-04-19T20:07:14.551Z,24.82
2018-04-19T20:09:42.881Z,24.76
2018-04-19T20:12:11.319Z,24.74
2018-04-19T20:14:39.654Z,24.72
2018-04-19T20:17:08.799Z,24.67
2018-04-19T20:19:37.233Z,24.65
2018-04-19T20:22:06.351Z,24.65
2018-04-19T20:24:34.672Z,24.61
2018-04-19T20:27:02.997Z,24.50
2018-04-19T20:29:31.696Z,24.48
2018-04-19T20:32:00.451Z,24.39
2018-04-19T20:34:29.747Z,24.33
2018-04-19T20:36:58.947Z,24.26
2018-04-19T20:39:28.148Z,24.26
2018-04-19T20:41:57.292Z,24.19
2018-04-19T20:44:25.708Z,24.11
2018-04-19T20:46:55.227Z,24.06
2018-04-19T20:49:23.612Z,23.91
2018-04-19T20:51:51.981Z,23.66
2018-04-19T20:54:20.311Z,23.57
2018-04-19T20:56:48.710Z,23.61
2018-04-19T20:59:17.073Z,23.63
2018-04-19T21:01:45.407Z,23.67
2018-04-19T21:04:13.811Z,23.68
2018-04-19T21:06:42.152Z,23.64
2018-04-19T21:09:11.380Z,23.59
2018-04-19T21:11:39.915Z,23.60
2018-04-19T21:14:08.987Z,23.54
2018-04-19T21:16:37.338Z,23.52
2018-04-19T21:19:05.669Z,23.45
2018-04-19T21:21:34.916Z,23.38
2018-04-19T21:24:03.294Z,23.28
2018-04-19T21:26:32.009Z,23.22
2018-04-19T21:29:00.404Z,23.21
2018-04-19T21:31:28.742Z,23.20
2018-04-19T21:33:57.194Z,23.17
2018-04-19T21:36:25.622Z,23.11
2018-04-19T21:38:54.126Z,23.08
2018-04-19T21:41:22.599Z,22.98
2018-04-19T21:43:50.909Z,22.94
2018-04-19T21:46:21.136Z,22.90
2018-04-19T21:48:49.468Z,22.83
2018-04-19T21:51:17.833Z,22.80
2018-04-19T21:53:46.548Z,22.55
2018-04-19T21:56:15.086Z,22.32
2018-04-19T21:58:43.453Z,22.25
2018-04-19T22:01:11.914Z,21.98
2018-04-19T22:03:40.316Z,21.81
2018-04-19T22:06:08.686Z,21.75
2018-04-19T22:08:37.189Z,21.84
2018-04-19T22:11:05.639Z,21.79
2018-04-19T22:13:33.967Z,21.80
2018-04-19T22:16:03.386Z,21.82
2018-04-19T22:18:31.757Z,21.91
2018-04-19T22:21:00.331Z,22.01
2018-04-19T22:23:28.632Z,22.04
2018-04-19T22:25:56.974Z,22.02
2018-04-19T22:28:26.463Z,22.04
2018-04-19T22:30:54.819Z,22.02
2018-04-19T22:33:23.114Z,22.03
2018-04-19T22:35:51.423Z,22.03
2018-04-19T22:38:19.908Z,21.95
2018-04-19T22:40:48.253Z,21.94
2018-04-19T22:43:16.602Z,21.95
2018-04-19T22:45:45.639Z,21.91
2018-04-19T22:48:13.966Z,21.95
2018-04-19T22:50:42.412Z,21.92
2018-04-19T22:53:11.722Z,21.69
2018-04-19T22:55:41.958Z,21.56
2018-04-19T22:58:12.017Z,21.52
2018-04-19T23:00:42.052Z,21.46
2018-04-19T23:03:10.506Z,21.46
2018-04-19T23:05:38.827Z,21.53
2018-04-19T23:08:07.289Z,21.52
2018-04-19T23:10:35.834Z,21.53
2018-04-19T23:13:04.152Z,21.52
2018-04-19T23:15:32.597Z,21.53
2018-04-19T23:18:00.948Z,21.48
2018-04-19T23:20:29.325Z,21.47
2018-04-19T23:22:57.827Z,21.46
2018-04-19T23:25:26.238Z,21.44
2018-04-19T23:27:54.561Z,21.39
2018-04-19T23:30:22.862Z,21.37
2018-04-19T23:32:51.201Z,21.27
2018-04-19T23:35:19.533Z,21.21
2018-04-19T23:37:47.884Z,21.22
2018-04-19T23:40:16.979Z,21.20
2018-04-19T23:42:46.109Z,21.21
2018-04-19T23:45:15.799Z,21.13
2018-04-19T23:47:44.333Z,21.11
2018-04-19T23:50:12.735Z,21.10
2018-04-19T23:52:41.072Z,21.04
2018-04-19T23:55:09.448Z,20.99
2018-04-19T23:57:37.728Z,20.96
